map of CAM home
CAM - Airport
Location
City:  Camiri, Cordillera, Santa Cruz, Bolivia
Near (Alt.):Choreti
Name:Camiri Airport
ICAO:SLCA
IATA:CAM

Details
Type:Airport (Aerodrome, Airfield)
Latitude:2000'22"S (-20.006110)
Longitude:6331'40"W (-63.527777)
Elevation:2614 ft (797 m)
Variation:11.11W (WMM2015 magnetic declination)
-0.20 annual change
Runways:1
Longest:3937 ft (1200 m)

Time
Time Zone:UTC-4
Local Time:

Weather
METAR:SLCA 112100Z 36005KT 9999 OVC033 30/22 Q1011

Related Locations
Nearby:
Farthest:VHSK: 12210 mi / 19650 km
Shek Kong Camp [Sek Kong], HK

Find:

   beyond  
but within

Other Information
Maps:
NOTAMs:
Links:
Sources:

  
  • flag of Bolivia
  • flag of Santa Cruz
  

Sectional Chart

Flight Planning
at skyvector.com

Satellite Image

Google Maps Satellite view

 

Copyright © 2004-2018 Karl L. Swartz. All rights reserved.
The Great Circle Mapper name and logo are trademarks of the Great Circle Mapper.
All other trademarks mentioned herein belong to their respective owners.
Please see credits for attibutions and further copyright information.

  Follow gcmap on Facebook Follow gcmap on Twitter Follow gcmap on Google+ GCmap on LinkedIn

hCard Microformat

Geo Microformat